sensor_id;sensor_type;location;lat;lon;timestamp;temperature;humidity
25951;DHT22;13748;52.240;6.002;2023-02-28T00:01:10;1.50;99.90
25951;DHT22;13748;52.240;6.002;2023-02-28T00:03:37;1.60;99.90
25951;DHT22;13748;52.240;6.002;2023-02-28T00:06:04;1.60;99.90
25951;DHT22;13748;52.240;6.002;2023-02-28T00:08:31;1.60;99.90
25951;DHT22;13748;52.240;6.002;2023-02-28T00:11:03;1.80;99.90
25951;DHT22;13748;52.240;6.002;2023-02-28T00:13:30;1.70;99.90
25951;DHT22;13748;52.240;6.002;2023-02-28T00:16:03;1.80;99.90
25951;DHT22;13748;52.240;6.002;2023-02-28T00:18:30;1.80;99.90
25951;DHT22;13748;52.240;6.002;2023-02-28T00:20:57;1.80;99.90
25951;DHT22;13748;52.240;6.002;2023-02-28T00:23:25;1.80;99.90
25951;DHT22;13748;52.240;6.002;2023-02-28T00:25:52;1.80;99.90
25951;DHT22;13748;52.240;6.002;2023-02-28T00:28:19;1.90;99.90
25951;DHT22;13748;52.240;6.002;2023-02-28T00:30:45;2.00;99.90
25951;DHT22;13748;52.240;6.002;2023-02-28T00:33:12;2.00;99.90
25951;DHT22;13748;52.240;6.002;2023-02-28T00:35:39;2.00;99.90
25951;DHT22;13748;52.240;6.002;2023-02-28T00:38:06;2.00;99.90
25951;DHT22;13748;52.240;6.002;2023-02-28T00:40:33;2.10;99.90
25951;DHT22;13748;52.240;6.002;2023-02-28T00:42:59;2.10;99.90
25951;DHT22;13748;52.240;6.002;2023-02-28T00:45:26;2.10;99.90
25951;DHT22;13748;52.240;6.002;2023-02-28T00:47:53;2.10;99.90
25951;DHT22;13748;52.240;6.002;2023-02-28T00:50:20;2.20;99.90
25951;DHT22;13748;52.240;6.002;2023-02-28T00:52:47;2.20;99.90
25951;DHT22;13748;52.240;6.002;2023-02-28T00:55:14;2.20;99.90
25951;DHT22;13748;52.240;6.002;2023-02-28T00:57:41;2.30;99.90
25951;DHT22;13748;52.240;6.002;2023-02-28T01:00:08;2.30;99.90
25951;DHT22;13748;52.240;6.002;2023-02-28T01:02:35;2.30;99.90
25951;DHT22;13748;52.240;6.002;2023-02-28T01:05:02;2.30;99.90
25951;DHT22;13748;52.240;6.002;2023-02-28T01:07:29;2.30;99.90
25951;DHT22;13748;52.240;6.002;2023-02-28T01:09:56;2.30;99.90
25951;DHT22;13748;52.240;6.002;2023-02-28T01:12:23;2.30;99.90
25951;DHT22;13748;52.240;6.002;2023-02-28T01:14:49;2.40;99.90
25951;DHT22;13748;52.240;6.002;2023-02-28T01:17:16;2.40;99.90
25951;DHT22;13748;52.240;6.002;2023-02-28T01:19:43;2.40;99.90
25951;DHT22;13748;52.240;6.002;2023-02-28T01:22:09;2.40;99.90
25951;DHT22;13748;52.240;6.002;2023-02-28T01:24:37;2.40;99.90
25951;DHT22;13748;52.240;6.002;2023-02-28T01:27:04;2.50;99.90
25951;DHT22;13748;52.240;6.002;2023-02-28T01:29:30;2.50;99.90
25951;DHT22;13748;52.240;6.002;2023-02-28T01:31:57;2.50;99.90
25951;DHT22;13748;52.240;6.002;2023-02-28T01:34:26;2.50;99.90
25951;DHT22;13748;52.240;6.002;2023-02-28T01:36:52;2.50;99.90
25951;DHT22;13748;52.240;6.002;2023-02-28T01:39:19;2.60;99.90
25951;DHT22;13748;52.240;6.002;2023-02-28T01:41:46;2.60;99.90
25951;DHT22;13748;52.240;6.002;2023-02-28T01:47:17;2.60;99.90
25951;DHT22;13748;52.240;6.002;2023-02-28T01:49:44;2.60;99.90
25951;DHT22;13748;52.240;6.002;2023-02-28T01:52:12;2.60;99.90
25951;DHT22;13748;52.240;6.002;2023-02-28T01:54:51;2.60;99.90
25951;DHT22;13748;52.240;6.002;2023-02-28T01:57:26;2.60;99.90
25951;DHT22;13748;52.240;6.002;2023-02-28T01:59:57;2.60;99.90
25951;DHT22;13748;52.240;6.002;2023-02-28T02:02:27;2.60;99.90
25951;DHT22;13748;52.240;6.002;2023-02-28T02:05:00;2.70;99.90
25951;DHT22;13748;52.240;6.002;2023-02-28T02:07:35;2.70;99.90
25951;DHT22;13748;52.240;6.002;2023-02-28T02:10:25;2.70;99.90
25951;DHT22;13748;52.240;6.002;2023-02-28T02:27:22;2.80;99.90
25951;DHT22;13748;52.240;6.002;2023-02-28T02:35:21;2.90;99.90
25951;DHT22;13748;52.240;6.002;2023-02-28T02:38:10;2.90;99.90
25951;DHT22;13748;52.240;6.002;2023-02-28T02:43:36;2.90;99.90
25951;DHT22;13748;52.240;6.002;2023-02-28T02:46:09;2.90;99.90
25951;DHT22;13748;52.240;6.002;2023-02-28T02:48:38;2.90;99.90
25951;DHT22;13748;52.240;6.002;2023-02-28T02:51:11;2.90;99.90
25951;DHT22;13748;52.240;6.002;2023-02-28T02:53:44;3.00;99.90
25951;DHT22;13748;52.240;6.002;2023-02-28T02:56:12;3.00;99.90
25951;DHT22;13748;52.240;6.002;2023-02-28T02:58:41;2.90;99.90
25951;DHT22;13748;52.240;6.002;2023-02-28T03:01:18;3.00;99.90
25951;DHT22;13748;52.240;6.002;2023-02-28T03:03:59;3.00;99.90
25951;DHT22;13748;52.240;6.002;2023-02-28T03:06:27;3.00;99.90
25951;DHT22;13748;52.240;6.002;2023-02-28T03:08:54;3.00;99.90
25951;DHT22;13748;52.240;6.002;2023-02-28T03:11:21;2.90;99.90
25951;DHT22;13748;52.240;6.002;2023-02-28T03:14:46;3.00;99.90
25951;DHT22;13748;52.240;6.002;2023-02-28T03:28:37;3.00;99.90
25951;DHT22;13748;52.240;6.002;2023-02-28T03:31:12;3.00;99.90
25951;DHT22;13748;52.240;6.002;2023-02-28T03:33:47;3.00;99.90
25951;DHT22;13748;52.240;6.002;2023-02-28T03:36:29;3.00;99.90
25951;DHT22;13748;52.240;6.002;2023-02-28T03:39:03;3.00;99.90
25951;DHT22;13748;52.240;6.002;2023-02-28T03:42:11;3.00;99.90
25951;DHT22;13748;52.240;6.002;2023-02-28T03:44:43;3.00;99.90
25951;DHT22;13748;52.240;6.002;2023-02-28T03:47:14;3.00;99.90
25951;DHT22;13748;52.240;6.002;2023-02-28T03:49:46;3.00;99.90
25951;DHT22;13748;52.240;6.002;2023-02-28T03:52:18;3.00;99.90
25951;DHT22;13748;52.240;6.002;2023-02-28T03:54:50;3.00;99.90
25951;DHT22;13748;52.240;6.002;2023-02-28T03:57:37;3.00;99.90
25951;DHT22;13748;52.240;6.002;2023-02-28T04:00:14;3.10;99.90
25951;DHT22;13748;52.240;6.002;2023-02-28T04:02:44;3.00;99.90
25951;DHT22;13748;52.240;6.002;2023-02-28T04:05:11;3.10;99.90
25951;DHT22;13748;52.240;6.002;2023-02-28T04:07:39;3.10;99.90
25951;DHT22;13748;52.240;6.002;2023-02-28T04:10:06;3.00;99.90
25951;DHT22;13748;52.240;6.002;2023-02-28T04:12:33;3.10;99.90
25951;DHT22;13748;52.240;6.002;2023-02-28T04:15:00;3.10;99.90
25951;DHT22;13748;52.240;6.002;2023-02-28T04:17:27;3.10;99.90
25951;DHT22;13748;52.240;6.002;2023-02-28T04:19:54;3.10;99.90
25951;DHT22;13748;52.240;6.002;2023-02-28T04:22:23;3.00;99.90
25951;DHT22;13748;52.240;6.002;2023-02-28T04:24:53;3.20;99.90
25951;DHT22;13748;52.240;6.002;2023-02-28T04:27:21;3.10;99.90
25951;DHT22;13748;52.240;6.002;2023-02-28T04:29:48;3.10;99.90
25951;DHT22;13748;52.240;6.002;2023-02-28T04:32:14;3.10;99.90
25951;DHT22;13748;52.240;6.002;2023-02-28T04:34:41;3.10;99.90
25951;DHT22;13748;52.240;6.002;2023-02-28T04:37:08;3.10;99.90
25951;DHT22;13748;52.240;6.002;2023-02-28T04:39:40;3.00;99.90
25951;DHT22;13748;52.240;6.002;2023-02-28T04:42:07;3.00;99.90
25951;DHT22;13748;52.240;6.002;2023-02-28T04:44:33;3.10;99.90
25951;DHT22;13748;52.240;6.002;2023-02-28T04:47:00;3.00;99.90
25951;DHT22;13748;52.240;6.002;2023-02-28T04:49:27;3.00;99.90
25951;DHT22;13748;52.240;6.002;2023-02-28T04:51:54;3.00;99.90
25951;DHT22;13748;52.240;6.002;2023-02-28T04:54:21;3.00;99.90
25951;DHT22;13748;52.240;6.002;2023-02-28T04:56:48;3.00;99.90
25951;DHT22;13748;52.240;6.002;2023-02-28T04:59:17;3.00;99.90
25951;DHT22;13748;52.240;6.002;2023-02-28T05:01:47;3.00;99.90
25951;DHT22;13748;52.240;6.002;2023-02-28T05:04:14;3.00;99.90
25951;DHT22;13748;52.240;6.002;2023-02-28T05:06:40;3.00;99.90
25951;DHT22;13748;52.240;6.002;2023-02-28T05:09:07;3.00;99.90
25951;DHT22;13748;52.240;6.002;2023-02-28T05:11:34;2.90;99.90
25951;DHT22;13748;52.240;6.002;2023-02-28T05:14:08;3.00;99.90
25951;DHT22;13748;52.240;6.002;2023-02-28T05:16:36;2.90;99.90
25951;DHT22;13748;52.240;6.002;2023-02-28T05:19:03;2.90;99.90
25951;DHT22;13748;52.240;6.002;2023-02-28T05:24:01;2.90;99.90
25951;DHT22;13748;52.240;6.002;2023-02-28T05:26:28;2.90;99.90
25951;DHT22;13748;52.240;6.002;2023-02-28T05:28:56;2.90;99.90
25951;DHT22;13748;52.240;6.002;2023-02-28T05:31:23;3.00;99.90
25951;DHT22;13748;52.240;6.002;2023-02-28T05:33:50;2.90;99.90
25951;DHT22;13748;52.240;6.002;2023-02-28T05:36:17;3.00;99.90
25951;DHT22;13748;52.240;6.002;2023-02-28T05:38:46;2.90;99.90
25951;DHT22;13748;52.240;6.002;2023-02-28T05:41:14;2.90;99.90
25951;DHT22;13748;52.240;6.002;2023-02-28T05:43:41;2.90;99.90
25951;DHT22;13748;52.240;6.002;2023-02-28T05:46:10;2.90;99.90
25951;DHT22;13748;52.240;6.002;2023-02-28T05:48:38;2.90;99.90
25951;DHT22;13748;52.240;6.002;2023-02-28T05:51:07;2.90;99.90
25951;DHT22;13748;52.240;6.002;2023-02-28T05:53:34;2.90;99.90
25951;DHT22;13748;52.240;6.002;2023-02-28T05:56:01;2.90;99.90
25951;DHT22;13748;52.240;6.002;2023-02-28T05:58:28;2.80;99.90
25951;DHT22;13748;52.240;6.002;2023-02-28T06:00:58;2.80;99.90
25951;DHT22;13748;52.240;6.002;2023-02-28T06:03:26;2.80;99.90
25951;DHT22;13748;52.240;6.002;2023-02-28T06:05:53;2.80;99.90
25951;DHT22;13748;52.240;6.002;2023-02-28T06:08:20;2.80;99.90
25951;DHT22;13748;52.240;6.002;2023-02-28T06:10:46;2.80;99.90
25951;DHT22;13748;52.240;6.002;2023-02-28T06:13:13;2.80;99.90
25951;DHT22;13748;52.240;6.002;2023-02-28T06:15:40;2.80;99.90
25951;DHT22;13748;52.240;6.002;2023-02-28T06:18:07;2.80;99.90
25951;DHT22;13748;52.240;6.002;2023-02-28T06:20:34;2.80;99.90
25951;DHT22;13748;52.240;6.002;2023-02-28T06:23:02;2.80;99.90
25951;DHT22;13748;52.240;6.002;2023-02-28T06:25:29;2.80;99.90
25951;DHT22;13748;52.240;6.002;2023-02-28T06:27:56;2.80;99.90
25951;DHT22;13748;52.240;6.002;2023-02-28T06:30:23;2.80;99.90
25951;DHT22;13748;52.240;6.002;2023-02-28T06:32:54;2.80;99.90
25951;DHT22;13748;52.240;6.002;2023-02-28T06:35:21;2.80;99.90
25951;DHT22;13748;52.240;6.002;2023-02-28T06:37:48;2.80;99.90
25951;DHT22;13748;52.240;6.002;2023-02-28T06:40:15;2.70;99.90
25951;DHT22;13748;52.240;6.002;2023-02-28T06:42:42;2.80;99.90
25951;DHT22;13748;52.240;6.002;2023-02-28T06:45:10;2.80;99.90
25951;DHT22;13748;52.240;6.002;2023-02-28T06:47:38;2.90;99.90
25951;DHT22;13748;52.240;6.002;2023-02-28T06:50:08;2.90;99.90
25951;DHT22;13748;52.240;6.002;2023-02-28T06:52:35;2.90;99.90
25951;DHT22;13748;52.240;6.002;2023-02-28T06:55:06;3.00;99.90
25951;DHT22;13748;52.240;6.002;2023-02-28T06:57:35;3.00;99.90
25951;DHT22;13748;52.240;6.002;2023-02-28T07:00:08;3.00;99.90
25951;DHT22;13748;52.240;6.002;2023-02-28T07:02:36;3.00;99.90
25951;DHT22;13748;52.240;6.002;2023-02-28T07:05:04;3.00;99.90
25951;DHT22;13748;52.240;6.002;2023-02-28T07:07:30;3.00;99.90
25951;DHT22;13748;52.240;6.002;2023-02-28T07:09:58;3.10;99.90
25951;DHT22;13748;52.240;6.002;2023-02-28T07:12:25;3.10;99.90
25951;DHT22;13748;52.240;6.002;2023-02-28T07:14:52;3.10;99.90
25951;DHT22;13748;52.240;6.002;2023-02-28T07:17:18;3.10;99.90
25951;DHT22;13748;52.240;6.002;2023-02-28T07:19:45;3.10;99.90
25951;DHT22;13748;52.240;6.002;2023-02-28T07:22:12;3.20;99.90
25951;DHT22;13748;52.240;6.002;2023-02-28T07:24:41;3.20;99.90
25951;DHT22;13748;52.240;6.002;2023-02-28T07:27:08;3.20;99.90
25951;DHT22;13748;52.240;6.002;2023-02-28T07:29:34;3.30;99.90
25951;DHT22;13748;52.240;6.002;2023-02-28T07:32:01;3.30;99.90
25951;DHT22;13748;52.240;6.002;2023-02-28T07:34:28;3.40;99.90
25951;DHT22;13748;52.240;6.002;2023-02-28T07:36:55;3.50;99.90
25951;DHT22;13748;52.240;6.002;2023-02-28T07:39:22;3.50;99.90
25951;DHT22;13748;52.240;6.002;2023-02-28T07:41:49;3.60;99.90
25951;DHT22;13748;52.240;6.002;2023-02-28T07:44:16;3.70;99.90
25951;DHT22;13748;52.240;6.002;2023-02-28T07:46:43;3.80;99.90
25951;DHT22;13748;52.240;6.002;2023-02-28T07:49:09;3.80;99.90
25951;DHT22;13748;52.240;6.002;2023-02-28T07:51:36;3.80;99.90
25951;DHT22;13748;52.240;6.002;2023-02-28T07:54:03;3.80;99.90
25951;DHT22;13748;52.240;6.002;2023-02-28T07:56:30;3.90;99.90
25951;DHT22;13748;52.240;6.002;2023-02-28T07:58:57;3.90;99.90
25951;DHT22;13748;52.240;6.002;2023-02-28T08:01:24;3.90;99.90
25951;DHT22;13748;52.240;6.002;2023-02-28T08:03:51;4.00;99.90
25951;DHT22;13748;52.240;6.002;2023-02-28T08:06:21;4.20;99.90
25951;DHT22;13748;52.240;6.002;2023-02-28T08:08:49;4.30;99.90
25951;DHT22;13748;52.240;6.002;2023-02-28T08:11:16;4.50;99.90
25951;DHT22;13748;52.240;6.002;2023-02-28T08:13:44;4.60;99.90
25951;DHT22;13748;52.240;6.002;2023-02-28T08:16:12;4.70;99.90
25951;DHT22;13748;52.240;6.002;2023-02-28T08:18:44;4.80;99.90
25951;DHT22;13748;52.240;6.002;2023-02-28T08:21:11;5.00;99.90
25951;DHT22;13748;52.240;6.002;2023-02-28T08:23:38;5.00;99.90
25951;DHT22;13748;52.240;6.002;2023-02-28T08:26:05;5.10;99.90
25951;DHT22;13748;52.240;6.002;2023-02-28T08:28:32;5.20;99.90
25951;DHT22;13748;52.240;6.002;2023-02-28T08:30:59;5.20;99.90
25951;DHT22;13748;52.240;6.002;2023-02-28T08:33:27;5.20;99.90
25951;DHT22;13748;52.240;6.002;2023-02-28T08:35:55;5.20;99.90
25951;DHT22;13748;52.240;6.002;2023-02-28T08:38:23;5.10;99.90
25951;DHT22;13748;52.240;6.002;2023-02-28T08:40:57;5.00;99.90
25951;DHT22;13748;52.240;6.002;2023-02-28T08:43:24;5.00;99.90
25951;DHT22;13748;52.240;6.002;2023-02-28T08:45:54;4.80;99.90
25951;DHT22;13748;52.240;6.002;2023-02-28T08:48:24;4.70;99.90
25951;DHT22;13748;52.240;6.002;2023-02-28T08:51:02;4.60;99.90
25951;DHT22;13748;52.240;6.002;2023-02-28T08:53:38;4.50;99.90
25951;DHT22;13748;52.240;6.002;2023-02-28T08:56:12;4.40;99.90
25951;DHT22;13748;52.240;6.002;2023-02-28T08:58:40;4.30;99.90
25951;DHT22;13748;52.240;6.002;2023-02-28T09:01:15;4.20;99.90
25951;DHT22;13748;52.240;6.002;2023-02-28T09:03:43;4.20;99.90
25951;DHT22;13748;52.240;6.002;2023-02-28T09:06:10;4.10;99.90
25951;DHT22;13748;52.240;6.002;2023-02-28T09:08:37;4.10;99.90
25951;DHT22;13748;52.240;6.002;2023-02-28T09:11:04;4.10;99.90
25951;DHT22;13748;52.240;6.002;2023-02-28T09:13:32;4.10;99.90
25951;DHT22;13748;52.240;6.002;2023-02-28T09:16:01;4.10;99.90
25951;DHT22;13748;52.240;6.002;2023-02-28T09:18:28;4.10;99.90
25951;DHT22;13748;52.240;6.002;2023-02-28T09:20:56;4.20;99.90
25951;DHT22;13748;52.240;6.002;2023-02-28T09:23:24;4.30;99.90
25951;DHT22;13748;52.240;6.002;2023-02-28T09:25:53;4.40;99.90
25951;DHT22;13748;52.240;6.002;2023-02-28T09:28:21;4.60;99.90
25951;DHT22;13748;52.240;6.002;2023-02-28T09:30:50;4.80;99.90
25951;DHT22;13748;52.240;6.002;2023-02-28T09:33:18;4.90;99.90
25951;DHT22;13748;52.240;6.002;2023-02-28T09:35:51;5.10;99.90
25951;DHT22;13748;52.240;6.002;2023-02-28T09:38:18;5.10;99.90
25951;DHT22;13748;52.240;6.002;2023-02-28T09:40:56;5.10;99.90
25951;DHT22;13748;52.240;6.002;2023-02-28T09:43:27;5.10;99.90
25951;DHT22;13748;52.240;6.002;2023-02-28T09:46:21;5.10;99.90
25951;DHT22;13748;52.240;6.002;2023-02-28T09:48:52;5.00;99.90
25951;DHT22;13748;52.240;6.002;2023-02-28T09:54:00;4.90;99.90
25951;DHT22;13748;52.240;6.002;2023-02-28T09:56:38;4.90;99.90
25951;DHT22;13748;52.240;6.002;2023-02-28T10:02:46;4.90;99.90
25951;DHT22;13748;52.240;6.002;2023-02-28T10:04:43;4.90;99.90
25951;DHT22;13748;52.240;6.002;2023-02-28T10:07:52;5.00;99.90
25951;DHT22;13748;52.240;6.002;2023-02-28T10:10:29;5.00;99.90
25951;DHT22;13748;52.240;6.002;2023-02-28T10:13:01;4.90;99.90
25951;DHT22;13748;52.240;6.002;2023-02-28T10:15:31;4.90;99.90
25951;DHT22;13748;52.240;6.002;2023-02-28T10:18:02;5.00;99.90
25951;DHT22;13748;52.240;6.002;2023-02-28T10:20:39;5.00;99.90
25951;DHT22;13748;52.240;6.002;2023-02-28T10:23:26;5.00;99.90
25951;DHT22;13748;52.240;6.002;2023-02-28T10:25:59;5.10;99.90
25951;DHT22;13748;52.240;6.002;2023-02-28T10:28:27;5.10;99.90
25951;DHT22;13748;52.240;6.002;2023-02-28T10:30:55;5.10;99.90
25951;DHT22;13748;52.240;6.002;2023-02-28T10:33:31;5.10;99.90
25951;DHT22;13748;52.240;6.002;2023-02-28T10:35:58;5.10;99.90
25951;DHT22;13748;52.240;6.002;2023-02-28T10:41:08;5.10;99.90
25951;DHT22;13748;52.240;6.002;2023-02-28T10:43:36;5.10;99.90
25951;DHT22;13748;52.240;6.002;2023-02-28T10:48:50;5.10;99.90
25951;DHT22;13748;52.240;6.002;2023-02-28T10:51:24;5.20;99.90
25951;DHT22;13748;52.240;6.002;2023-02-28T10:53:55;5.10;99.90
25951;DHT22;13748;52.240;6.002;2023-02-28T10:56:29;5.20;99.90
25951;DHT22;13748;52.240;6.002;2023-02-28T11:01:46;5.20;99.90
25951;DHT22;13748;52.240;6.002;2023-02-28T11:06:58;5.30;99.90
25951;DHT22;13748;52.240;6.002;2023-02-28T11:11:59;5.40;99.90
25951;DHT22;13748;52.240;6.002;2023-02-28T11:14:28;5.50;99.90
25951;DHT22;13748;52.240;6.002;2023-02-28T11:17:02;5.70;99.90
25951;DHT22;13748;52.240;6.002;2023-02-28T11:19:40;5.80;99.90
25951;DHT22;13748;52.240;6.002;2023-02-28T11:22:11;5.90;99.90
25951;DHT22;13748;52.240;6.002;2023-02-28T11:24:47;6.00;99.90
25951;DHT22;13748;52.240;6.002;2023-02-28T11:30:27;6.20;99.90
25951;DHT22;13748;52.240;6.002;2023-02-28T11:32:54;6.30;99.90
25951;DHT22;13748;52.240;6.002;2023-02-28T11:35:26;6.30;99.90
25951;DHT22;13748;52.240;6.002;2023-02-28T11:37:53;6.20;99.90
25951;DHT22;13748;52.240;6.002;2023-02-28T11:43:04;6.20;99.90
25951;DHT22;13748;52.240;6.002;2023-02-28T11:45:40;6.30;99.90
25951;DHT22;13748;52.240;6.002;2023-02-28T11:48:22;6.30;99.90
25951;DHT22;13748;52.240;6.002;2023-02-28T11:51:00;6.40;99.90
25951;DHT22;13748;52.240;6.002;2023-02-28T11:53:55;6.50;99.90
25951;DHT22;13748;52.240;6.002;2023-02-28T11:56:47;6.70;99.90
25951;DHT22;13748;52.240;6.002;2023-02-28T12:05:14;7.10;99.90
25951;DHT22;13748;52.240;6.002;2023-02-28T12:13:21;7.10;99.90
25951;DHT22;13748;52.240;6.002;2023-02-28T12:21:47;7.30;99.90
25951;DHT22;13748;52.240;6.002;2023-02-28T12:24:45;7.50;99.90
25951;DHT22;13748;52.240;6.002;2023-02-28T12:27:20;7.60;99.90
25951;DHT22;13748;52.240;6.002;2023-02-28T12:29:58;7.60;99.90
25951;DHT22;13748;52.240;6.002;2023-02-28T12:32:32;7.60;99.90
25951;DHT22;13748;52.240;6.002;2023-02-28T12:35:11;7.60;99.90
25951;DHT22;13748;52.240;6.002;2023-02-28T12:38:09;7.70;99.90
25951;DHT22;13748;52.240;6.002;2023-02-28T12:41:00;7.90;99.90
25951;DHT22;13748;52.240;6.002;2023-02-28T12:43:35;8.00;99.90
25951;DHT22;13748;52.240;6.002;2023-02-28T12:51:13;8.20;99.90
25951;DHT22;13748;52.240;6.002;2023-02-28T12:56:41;8.30;99.90
25951;DHT22;13748;52.240;6.002;2023-02-28T13:10:46;8.30;99.90
25951;DHT22;13748;52.240;6.002;2023-02-28T13:13:19;8.20;99.90
25951;DHT22;13748;52.240;6.002;2023-02-28T13:16:04;8.20;99.90
25951;DHT22;13748;52.240;6.002;2023-02-28T13:18:33;8.20;99.90
25951;DHT22;13748;52.240;6.002;2023-02-28T13:21:03;8.30;99.90
25951;DHT22;13748;52.240;6.002;2023-02-28T13:26:13;8.20;99.90
25951;DHT22;13748;52.240;6.002;2023-02-28T13:31:20;8.10;99.90
25951;DHT22;13748;52.240;6.002;2023-02-28T13:38:48;8.40;99.90
25951;DHT22;13748;52.240;6.002;2023-02-28T13:44:02;8.50;98.90
25951;DHT22;13748;52.240;6.002;2023-02-28T13:46:30;8.50;99.70
25951;DHT22;13748;52.240;6.002;2023-02-28T13:54:27;8.50;99.90
25951;DHT22;13748;52.240;6.002;2023-02-28T13:57:04;8.60;99.90
25951;DHT22;13748;52.240;6.002;2023-02-28T14:02:45;8.70;99.50
25951;DHT22;13748;52.240;6.002;2023-02-28T14:05:18;8.70;98.70
25951;DHT22;13748;52.240;6.002;2023-02-28T14:07:52;8.50;97.90
25951;DHT22;13748;52.240;6.002;2023-02-28T14:10:28;8.50;97.70
25951;DHT22;13748;52.240;6.002;2023-02-28T14:13:03;8.40;96.70
25951;DHT22;13748;52.240;6.002;2023-02-28T14:15:38;8.40;97.50
25951;DHT22;13748;52.240;6.002;2023-02-28T14:18:28;8.40;98.60
25951;DHT22;13748;52.240;6.002;2023-02-28T14:21:13;8.50;98.60
25951;DHT22;13748;52.240;6.002;2023-02-28T14:27:22;8.60;98.00
25951;DHT22;13748;52.240;6.002;2023-02-28T14:30:26;8.50;96.90
25951;DHT22;13748;52.240;6.002;2023-02-28T14:35:50;8.40;96.60
25951;DHT22;13748;52.240;6.002;2023-02-28T14:38:26;8.40;96.90
25951;DHT22;13748;52.240;6.002;2023-02-28T14:40:56;8.50;97.50
25951;DHT22;13748;52.240;6.002;2023-02-28T14:43:28;8.50;97.20
25951;DHT22;13748;52.240;6.002;2023-02-28T14:45:57;8.40;95.60
25951;DHT22;13748;52.240;6.002;2023-02-28T14:48:25;8.30;96.30
25951;DHT22;13748;52.240;6.002;2023-02-28T14:50:58;8.30;96.60
25951;DHT22;13748;52.240;6.002;2023-02-28T14:53:29;8.20;97.20
25951;DHT22;13748;52.240;6.002;2023-02-28T14:55:56;8.10;96.90
25951;DHT22;13748;52.240;6.002;2023-02-28T14:58:29;8.10;97.00
25951;DHT22;13748;52.240;6.002;2023-02-28T15:01:01;8.20;97.40
25951;DHT22;13748;52.240;6.002;2023-02-28T15:03:36;8.20;97.20
25951;DHT22;13748;52.240;6.002;2023-02-28T15:06:15;8.20;97.40
25951;DHT22;13748;52.240;6.002;2023-02-28T15:08:45;8.20;97.90
25951;DHT22;13748;52.240;6.002;2023-02-28T15:11:16;8.20;97.90
25951;DHT22;13748;52.240;6.002;2023-02-28T15:13:50;8.10;98.10
25951;DHT22;13748;52.240;6.002;2023-02-28T15:18:58;8.10;98.30
25951;DHT22;13748;52.240;6.002;2023-02-28T15:21:41;8.00;97.90
25951;DHT22;13748;52.240;6.002;2023-02-28T15:24:31;8.00;98.30
25951;DHT22;13748;52.240;6.002;2023-02-28T15:27:05;8.00;98.50
25951;DHT22;13748;52.240;6.002;2023-02-28T15:29:42;8.10;98.70
25951;DHT22;13748;52.240;6.002;2023-02-28T15:32:34;8.30;98.40
25951;DHT22;13748;52.240;6.002;2023-02-28T15:35:28;8.40;97.40
25951;DHT22;13748;52.240;6.002;2023-02-28T15:38:03;8.60;98.00
25951;DHT22;13748;52.240;6.002;2023-02-28T15:40:36;9.00;97.90
25951;DHT22;13748;52.240;6.002;2023-02-28T15:43:14;9.20;98.40
25951;DHT22;13748;52.240;6.002;2023-02-28T15:45:49;9.20;98.10
25951;DHT22;13748;52.240;6.002;2023-02-28T15:48:20;9.10;98.10
25951;DHT22;13748;52.240;6.002;2023-02-28T15:50:51;8.90;98.40
25951;DHT22;13748;52.240;6.002;2023-02-28T15:53:47;8.70;98.30
25951;DHT22;13748;52.240;6.002;2023-02-28T15:56:31;8.40;98.30
25951;DHT22;13748;52.240;6.002;2023-02-28T15:59:05;8.20;98.70
25951;DHT22;13748;52.240;6.002;2023-02-28T16:01:34;8.00;98.90
25951;DHT22;13748;52.240;6.002;2023-02-28T16:04:04;7.90;99.50
25951;DHT22;13748;52.240;6.002;2023-02-28T16:06:40;7.80;99.90
25951;DHT22;13748;52.240;6.002;2023-02-28T16:09:11;7.70;99.90
25951;DHT22;13748;52.240;6.002;2023-02-28T16:11:42;7.70;99.90
25951;DHT22;13748;52.240;6.002;2023-02-28T16:14:31;7.50;99.90
25951;DHT22;13748;52.240;6.002;2023-02-28T16:17:07;7.50;99.90
25951;DHT22;13748;52.240;6.002;2023-02-28T16:19:36;7.40;99.90
25951;DHT22;13748;52.240;6.002;2023-02-28T16:22:03;7.30;99.90
25951;DHT22;13748;52.240;6.002;2023-02-28T16:24:30;7.20;99.90
25951;DHT22;13748;52.240;6.002;2023-02-28T16:26:57;7.10;99.90
25951;DHT22;13748;52.240;6.002;2023-02-28T16:29:31;7.00;99.90
25951;DHT22;13748;52.240;6.002;2023-02-28T16:31:58;6.90;99.90
25951;DHT22;13748;52.240;6.002;2023-02-28T16:34:26;6.80;99.90
25951;DHT22;13748;52.240;6.002;2023-02-28T16:36:53;6.80;99.90
25951;DHT22;13748;52.240;6.002;2023-02-28T16:39:20;6.60;99.90
25951;DHT22;13748;52.240;6.002;2023-02-28T16:41:48;6.60;99.90
25951;DHT22;13748;52.240;6.002;2023-02-28T16:44:27;6.50;99.90
25951;DHT22;13748;52.240;6.002;2023-02-28T16:46:55;6.40;99.90
25951;DHT22;13748;52.240;6.002;2023-02-28T16:49:21;6.30;99.90
25951;DHT22;13748;52.240;6.002;2023-02-28T16:51:48;6.20;99.90
25951;DHT22;13748;52.240;6.002;2023-02-28T16:54:15;6.10;99.90
25951;DHT22;13748;52.240;6.002;2023-02-28T16:56:46;6.10;99.90
25951;DHT22;13748;52.240;6.002;2023-02-28T16:59:17;6.00;99.90
25951;DHT22;13748;52.240;6.002;2023-02-28T17:01:44;6.00;99.90
25951;DHT22;13748;52.240;6.002;2023-02-28T17:04:11;5.90;99.90
25951;DHT22;13748;52.240;6.002;2023-02-28T17:06:39;5.80;99.90
25951;DHT22;13748;52.240;6.002;2023-02-28T17:09:11;5.70;99.90
25951;DHT22;13748;52.240;6.002;2023-02-28T17:11:43;5.60;99.90
25951;DHT22;13748;52.240;6.002;2023-02-28T17:14:10;5.60;99.90
25951;DHT22;13748;52.240;6.002;2023-02-28T17:16:37;5.50;99.90
25951;DHT22;13748;52.240;6.002;2023-02-28T17:19:13;5.40;99.90
25951;DHT22;13748;52.240;6.002;2023-02-28T17:21:41;5.30;99.90
25951;DHT22;13748;52.240;6.002;2023-02-28T17:24:09;5.20;99.90
25951;DHT22;13748;52.240;6.002;2023-02-28T17:26:44;5.10;99.90
25951;DHT22;13748;52.240;6.002;2023-02-28T17:29:15;5.10;99.90
25951;DHT22;13748;52.240;6.002;2023-02-28T17:31:42;4.90;99.90
25951;DHT22;13748;52.240;6.002;2023-02-28T17:34:10;4.80;99.90
25951;DHT22;13748;52.240;6.002;2023-02-28T17:36:37;4.80;99.90
25951;DHT22;13748;52.240;6.002;2023-02-28T17:39:09;4.70;99.90
25951;DHT22;13748;52.240;6.002;2023-02-28T17:41:37;4.70;99.90
25951;DHT22;13748;52.240;6.002;2023-02-28T17:44:04;4.60;99.90
25951;DHT22;13748;52.240;6.002;2023-02-28T17:46:31;4.80;99.90
25951;DHT22;13748;52.240;6.002;2023-02-28T17:48:59;4.80;99.90
25951;DHT22;13748;52.240;6.002;2023-02-28T17:51:26;4.60;99.90
25951;DHT22;13748;52.240;6.002;2023-02-28T17:53:53;4.50;99.90
25951;DHT22;13748;52.240;6.002;2023-02-28T17:56:24;4.40;99.90
25951;DHT22;13748;52.240;6.002;2023-02-28T17:58:54;4.30;99.90
25951;DHT22;13748;52.240;6.002;2023-02-28T18:01:22;4.20;99.90
25951;DHT22;13748;52.240;6.002;2023-02-28T18:03:50;4.20;99.90
25951;DHT22;13748;52.240;6.002;2023-02-28T18:06:22;4.10;99.90
25951;DHT22;13748;52.240;6.002;2023-02-28T18:08:51;4.10;99.90
25951;DHT22;13748;52.240;6.002;2023-02-28T18:11:22;4.00;99.90
25951;DHT22;13748;52.240;6.002;2023-02-28T18:13:52;3.90;99.90
25951;DHT22;13748;52.240;6.002;2023-02-28T18:16:19;3.90;99.90
25951;DHT22;13748;52.240;6.002;2023-02-28T18:18:48;3.80;99.90
25951;DHT22;13748;52.240;6.002;2023-02-28T18:21:16;3.70;99.90